首页
METAR-TAF:

METAR-TAF

机场 :

Aurora Municipal Airport (Al Potter Field)

奥罗拉, 內布拉斯加州, 美国

纬度: 40-53-38N, 经度: 097-59-40W, 海拔: 550米

当前天气观测

该预报发布于29分钟前的00:15 UTC
风速4节,风向
温度 9°C
湿度 49%
气压 1014 hPa
能見度: 16.1公里
天空无云

METAR: KAUH 180015Z AUTO 17004KT 10SM CLR 09/M01 A2994 RMK AO2 T00911007

时间: 18:44 (00:44 UTC)


TAF: 丢失

超过4000个机场的气象观测和天气预报(METAR&TAF报告)。

可查询的气象台以黄色和红色小点在地图上表示。

将鼠标移到小点上方,可查看气象台名称。

然后点击查看天气观测和预报。

如需切换地图:点击带黑十字的绿色按钮放大地图;点击带横线的绿色按钮缩小地图;或者点击绿色箭头查看邻近地区的地图。


METAR-TAF: